Auke Bay, Alaska
Current Conditions -  °F | °C
As of 4:29 AM on Sunday 21 Dec 2014 (Local Time) from PAJN Reporting Station
Light Rain Light Rain  
Wind Chill: 35°   Ceiling: 1000
Heat Index: 35°   Visibility: 5mi
Dew Point: 34°   Wind: 0mph
Humidity: 96%   Direction: NA
Pressure: 29.27"   Gusts: NA
Location:  58.38°N, 134.67°W
Report Text: PAJN 211329Z 00000KT 5SM -RA BR FEW003 BKN010 OVC029 02/01 A2927 RMK AO2 P0002 T00170011
Loading
Personal Weather Stations






























Interactive Weather Map New forecast layout! Learn more

10-Day Weather Forecast

Advertisements
Track Severe Weather on mobile